Time;durP1;ratioP1;P1;durP2;ratioP2;P2;SDS_P1;SDS_P2;PMS_P1;PMS_P2;Temp;Humidity;BMP_temperature;BMP_pressure;BME280_temperature;BME280_humidity;BME280_pressure;Samples;Min_cycle;Max_cycle;Signal;HPM_P1;HPM_P2
2022/01/03 00:01:48;;;;;;;4.88;1.48;;;30.50;61.40;;;;;;5130532;27;20410;-79
2022/01/03 00:04:16;;;;;;;6.55;1.58;;;29.60;62.80;;;;;;5130817;27;20376;-79
2022/01/03 00:06:47;;;;;;;5.72;1.50;;;29.00;65.40;;;;;;5130424;27;20397;-78
2022/01/03 00:09:14;;;;;;;5.32;1.63;;;28.80;66.40;;;;;;5130379;27;20882;-79
2022/01/03 00:11:41;;;;;;;7.88;1.65;;;29.00;66.40;;;;;;5130421;27;20416;-78
2022/01/03 00:14:08;;;;;;;6.13;1.52;;;29.80;65.20;;;;;;5130513;27;20706;-79
2022/01/03 00:16:35;;;;;;;5.40;1.55;;;30.60;62.90;;;;;;5112347;27;20377;-79
2022/01/03 00:19:02;;;;;;;6.07;1.60;;;30.70;60.60;;;;;;5112031;27;20369;-80
2022/01/03 00:21:39;;;;;;;5.35;1.50;;;30.40;61.20;;;;;;5130320;27;20418;-80
2022/01/03 00:24:09;;;;;;;5.80;1.60;;;30.40;61.80;;;;;;5130647;27;20389;-79
2022/01/03 00:26:37;;;;;;;6.07;1.70;;;30.90;61.20;;;;;;5112335;27;20389;-79
2022/01/03 00:29:10;;;;;;;5.72;1.50;;;31.60;59.30;;;;;;5130054;27;20745;-79
2022/01/03 00:31:41;;;;;;;4.15;1.35;;;32.10;57.50;;;;;;5130609;27;20361;-79
2022/01/03 00:34:14;;;;;;;7.13;1.73;;;31.40;58.50;;;;;;5130344;27;20399;-79
2022/01/03 00:36:44;;;;;;;4.95;1.50;;;30.80;59.20;;;;;;5129923;27;20402;-78
2022/01/03 00:39:12;;;;;;;9.85;1.95;;;29.40;63.70;;;;;;5129838;27;20399;-79
2022/01/03 00:41:43;;;;;;;9.93;1.90;;;28.80;65.60;;;;;;5129608;27;20389;-78
2022/01/03 00:44:10;;;;;;;6.93;1.90;;;28.30;66.40;;;;;;5129927;27;20392;-81
2022/01/03 00:46:38;;;;;;;5.20;1.30;;;28.20;66.80;;;;;;5129576;27;20389;-83
2022/01/03 00:49:06;;;;;;;7.13;1.50;;;28.60;64.30;;;;;;5129883;27;20384;-81
2022/01/03 00:51:34;;;;;;;5.43;1.50;;;29.10;66.90;;;;;;5129737;27;20357;-81
2022/01/03 00:54:01;;;;;;;5.80;1.80;;;30.10;65.70;;;;;;5129827;27;20373;-79
2022/01/03 00:56:37;;;;;;;4.57;1.60;;;30.90;63.60;;;;;;5111507;27;20425;-80
2022/01/03 00:59:15;;;;;;;6.60;1.65;;;31.20;61.20;;;;;;5129707;27;20425;-81
2022/01/03 01:01:51;;;;;;;7.15;1.80;;;31.10;58.40;;;;;;5129648;27;20696;-79
2022/01/03 01:04:21;;;;;;;5.30;1.70;;;30.70;59.50;;;;;;5129527;27;20365;-82
2022/01/03 01:06:53;;;;;;;6.40;1.70;;;30.70;60.30;;;;;;5129595;27;20389;-82
2022/01/03 01:09:22;;;;;;;5.75;1.52;;;30.50;60.80;;;;;;5129723;27;20365;-80
2022/01/03 01:11:53;;;;;;;6.65;1.60;;;30.50;60.60;;;;;;5129604;27;20376;-80
2022/01/03 01:14:21;;;;;;;4.85;1.58;;;30.70;60.30;;;;;;5129500;27;20398;-79
2022/01/03 01:16:52;;;;;;;5.88;1.75;;;31.10;59.20;;;;;;5129421;27;20408;-79
2022/01/03 01:19:20;;;;;;;6.38;1.42;;;31.40;59.60;;;;;;5110540;27;20834;-80
2022/01/03 01:21:51;;;;;;;5.45;1.58;;;31.70;57.60;;;;;;5128970;27;20860;-79
2022/01/03 01:24:21;;;;;;;5.87;1.60;;;31.30;58.20;;;;;;5129086;27;20460;-77
2022/01/03 01:29:37;;;;;;;6.07;1.67;;;31.00;60.30;;;;;;5130411;27;20377;-78
2022/01/03 01:32:06;;;;;;;5.87;1.70;;;31.80;59.70;;;;;;5129376;27;20875;-80
2022/01/03 01:34:39;;;;;;;6.13;1.70;;;32.80;56.30;;;;;;5110546;27;20737;-79
2022/01/03 01:37:07;;;;;;;7.53;1.77;;;33.70;55.30;;;;;;5128991;27;20368;-77
2022/01/03 01:39:34;;;;;;;6.40;1.80;;;34.20;53.50;;;;;;5128873;27;20369;-79
2022/01/03 01:42:04;;;;;;;4.70;1.58;;;34.50;52.80;;;;;;5128793;27;20864;-79
2022/01/03 01:44:38;;;;;;;6.13;1.67;;;34.70;52.10;;;;;;5128840;28;20377;-80
2022/01/03 01:47:07;;;;;;;5.30;1.70;;;34.80;53.20;;;;;;5128769;28;20393;-79
2022/01/03 01:49:55;;;;;;;6.10;1.58;;;34.80;51.10;;;;;;5128900;28;20442;-79
2022/01/03 01:52:25;;;;;;;4.47;1.63;;;34.80;51.50;;;;;;5128987;28;20358;-80
2022/01/03 01:54:56;;;;;;;5.05;1.75;;;34.80;52.40;;;;;;5129183;28;20384;-79
2022/01/03 01:57:39;;;;;;;5.10;1.60;;;35.40;49.80;;;;;;5128853;28;20834;-78
2022/01/03 02:00:14;;;;;;;6.45;1.60;;;35.80;49.70;;;;;;5129706;28;20769;-80
2022/01/03 02:02:50;;;;;;;5.57;1.58;;;35.30;48.90;;;;;;5128758;28;20353;-80
2022/01/03 02:05:30;;;;;;;5.18;1.48;;;35.50;48.70;;;;;;5128967;28;20846;-80
2022/01/03 02:08:14;;;;;;;4.88;1.52;;;35.40;49.20;;;;;;5128529;28;20457;-80
2022/01/03 02:10:45;;;;;;;4.95;1.60;;;35.70;48.70;;;;;;5128701;28;20452;-81
2022/01/03 02:13:21;;;;;;;5.03;1.33;;;36.30;47.60;;;;;;5128616;28;20420;-80
2022/01/03 02:15:57;;;;;;;4.05;1.45;;;36.90;45.80;;;;;;5128520;28;20365;-84
2022/01/03 02:18:25;;;;;;;4.65;1.27;;;37.40;44.00;;;;;;5128385;28;20451;-84
2022/01/03 02:20:53;;;;;;;3.38;1.30;;;37.60;44.90;;;;;;5128344;28;20781;-82
2022/01/03 02:23:20;;;;;;;4.03;1.45;;;37.50;44.50;;;;;;5128505;28;20856;-81
2022/01/03 02:25:47;;;;;;;4.45;1.60;;;37.30;44.00;;;;;;5128161;28;20464;-85
2022/01/03 02:28:16;;;;;;;3.75;1.30;;;37.40;45.20;;;;;;5128654;28;20864;-87
2022/01/03 02:30:43;;;;;;;2.95;1.40;;;37.80;44.30;;;;;;5128792;28;20376;-85
2022/01/03 02:33:10;;;;;;;3.57;1.50;;;38.00;42.70;;;;;;5128433;28;20373;-85
2022/01/03 02:35:39;;;;;;;3.55;1.40;;;38.10;42.80;;;;;;5128512;28;20425;-82
2022/01/03 02:38:07;;;;;;;6.03;1.60;;;38.10;42.90;;;;;;5128291;28;20368;-83
2022/01/03 02:40:37;;;;;;;4.65;1.50;;;37.70;44.30;;;;;;5128539;28;20891;-91
2022/01/03 02:43:04;;;;;;;5.73;1.50;;;37.20;44.20;;;;;;5128774;27;20428;-85
2022/01/03 02:45:32;;;;;;;3.05;1.40;;;37.10;44.80;;;;;;5131386;27;20460;-83
2022/01/03 02:48:04;;;;;;;6.40;1.70;;;37.60;43.80;;;;;;5132252;27;20855;-87
2022/01/03 02:50:32;;;;;;;3.63;1.45;;;37.90;43.80;;;;;;5140305;27;20361;-85
2022/01/03 02:53:00;;;;;;;4.63;1.48;;;38.10;43.40;;;;;;5131921;27;20373;-88
2022/01/03 02:55:27;;;;;;;3.58;1.50;;;37.90;42.40;;;;;;5132019;27;20803;-86
2022/01/03 02:57:58;;;;;;;5.68;1.52;;;36.80;43.50;;;;;;5132076;27;20376;-86
2022/01/03 03:00:30;;;;;;;4.25;1.30;;;36.80;44.70;;;;;;5139990;27;20361;-80
2022/01/03 03:02:57;;;;;;;3.28;1.40;;;37.40;43.30;;;;;;5132534;27;20397;-86
2022/01/03 03:05:25;;;;;;;4.00;1.50;;;37.80;43.70;;;;;;5131887;27;20887;-82
2022/01/03 03:07:55;;;;;;;3.30;1.40;;;38.30;43.20;;;;;;5131890;27;20400;-84
2022/01/03 03:10:25;;;;;;;3.88;1.40;;;38.10;43.60;;;;;;5131950;27;20401;-80
2022/01/03 03:12:53;;;;;;;6.47;1.70;;;38.00;42.80;;;;;;5132205;27;20450;-83
2022/01/03 03:15:23;;;;;;;5.35;1.67;;;38.20;44.50;;;;;;5131672;27;20413;-88
2022/01/03 03:17:53;;;;;;;4.82;1.67;;;38.50;44.10;;;;;;5131568;27;20382;-82
2022/01/03 03:20:23;;;;;;;6.88;1.85;;;38.80;43.80;;;;;;5131556;27;20373;-84
2022/01/03 03:22:51;;;;;;;4.07;1.70;;;38.80;44.40;;;;;;5131450;27;20773;-88
2022/01/03 03:25:24;;;;;;;6.63;1.80;;;38.90;43.80;;;;;;5131957;27;20913;-85
2022/01/03 03:27:57;;;;;;;4.53;1.42;;;38.80;42.60;;;;;;5131555;27;20411;-84
2022/01/03 03:30:34;;;;;;;6.28;1.80;;;38.90;43.40;;;;;;5131867;27;20813;-83
2022/01/03 03:33:19;;;;;;;4.95;1.58;;;39.20;43.20;;;;;;5131788;27;20433;-89
2022/01/03 03:35:50;;;;;;;4.67;1.27;;;39.20;43.10;;;;;;5131360;27;20373;-86
2022/01/03 03:38:18;;;;;;;4.20;1.30;;;39.20;41.80;;;;;;5131333;27;20361;-83
2022/01/03 03:40:47;;;;;;;4.70;1.45;;;39.30;42.00;;;;;;5130841;27;20404;-83
2022/01/03 03:43:15;;;;;;;3.47;1.40;;;39.40;40.60;;;;;;5130923;27;20777;-86
2022/01/03 03:45:42;;;;;;;3.20;1.40;;;38.70;42.20;;;;;;5130913;27;20377;-83
2022/01/03 03:48:09;;;;;;;4.88;1.30;;;38.10;43.30;;;;;;5131133;27;20454;-86
2022/01/03 03:50:37;;;;;;;3.88;1.30;;;38.50;41.90;;;;;;5130883;27;20410;-75
2022/01/03 03:53:04;;;;;;;4.85;1.30;;;38.70;41.00;;;;;;5130937;27;20376;-83
2022/01/03 03:55:34;;;;;;;2.28;1.20;;;38.80;42.20;;;;;;5130638;27;20373;-78
2022/01/03 03:58:02;;;;;;;4.57;1.30;;;39.00;41.80;;;;;;5130983;27;20922;-81
2022/01/03 04:00:30;;;;;;;3.13;1.33;;;39.20;40.70;;;;;;5130531;27;20496;-84
2022/01/03 04:02:58;;;;;;;4.65;1.20;;;38.80;41.60;;;;;;5130712;27;20365;-80
2022/01/03 04:05:25;;;;;;;3.25;1.20;;;38.80;42.00;;;;;;5130748;27;20377;-80
2022/01/03 04:07:52;;;;;;;3.00;1.20;;;38.80;41.50;;;;;;5130854;27;20411;-76
2022/01/03 04:10:19;;;;;;;3.38;1.20;;;38.80;41.10;;;;;;5130594;27;20366;-81
2022/01/03 04:12:47;;;;;;;2.73;1.10;;;38.80;41.10;;;;;;5130602;27;20368;-89
2022/01/03 04:15:14;;;;;;;3.42;1.27;;;38.80;40.90;;;;;;5130504;27;20373;-85
2022/01/03 04:17:41;;;;;;;2.15;0.90;;;38.70;41.10;;;;;;5130483;27;20361;-87
2022/01/03 04:20:10;;;;;;;2.95;1.10;;;38.70;39.90;;;;;;5130381;27;20397;-87
2022/01/03 04:22:37;;;;;;;3.83;1.10;;;38.70;39.90;;;;;;5112063;27;20904;-85
2022/01/03 04:25:05;;;;;;;3.78;1.40;;;38.90;40.80;;;;;;5130389;27;20969;-85
2022/01/03 04:27:32;;;;;;;3.50;1.20;;;38.90;41.70;;;;;;5130045;27;20392;-84
2022/01/03 04:29:59;;;;;;;2.70;1.10;;;39.10;39.90;;;;;;5130359;27;20365;-81
2022/01/03 04:32:29;;;;;;;3.55;1.20;;;38.90;40.90;;;;;;5130067;27;20928;-83
2022/01/03 04:34:56;;;;;;;6.72;1.13;;;39.00;40.30;;;;;;5130026;27;20376;-85
2022/01/03 04:37:23;;;;;;;2.25;1.08;;;39.40;39.10;;;;;;5130003;27;20369;-82
2022/01/03 04:39:50;;;;;;;3.33;1.20;;;39.60;39.90;;;;;;5129640;27;20365;-85
2022/01/03 04:42:17;;;;;;;3.80;1.10;;;39.40;39.20;;;;;;5130154;27;20369;-84
2022/01/03 04:44:44;;;;;;;2.83;1.20;;;39.20;39.50;;;;;;5112118;27;20900;-76
2022/01/03 04:47:11;;;;;;;3.75;1.20;;;39.30;40.20;;;;;;5112325;27;20404;-82
2022/01/03 04:49:38;;;;;;;4.10;1.17;;;39.40;40.30;;;;;;5130189;27;20372;-79
2022/01/03 04:52:05;;;;;;;2.63;1.20;;;39.30;39.00;;;;;;5129853;27;20376;-81
2022/01/03 04:54:32;;;;;;;3.33;1.30;;;39.30;39.70;;;;;;5130134;27;20373;-76
2022/01/03 04:56:59;;;;;;;4.07;1.70;;;39.00;41.40;;;;;;5131715;27;20422;-81
2022/01/03 04:59:26;;;;;;;4.85;1.90;;;38.70;40.10;;;;;;5131182;27;20373;-77
2022/01/03 05:01:53;;;;;;;5.53;2.80;;;38.80;41.30;;;;;;5131098;27;20460;-82
2022/01/03 05:04:20;;;;;;;4.82;1.40;;;38.70;40.60;;;;;;5129927;27;20365;-78
2022/01/03 05:06:47;;;;;;;3.33;1.55;;;38.70;40.40;;;;;;5129061;27;20396;-82
2022/01/03 05:09:14;;;;;;;5.35;1.55;;;38.40;41.70;;;;;;5129825;27;20414;-76
2022/01/03 05:11:42;;;;;;;4.78;1.50;;;38.30;42.90;;;;;;5130322;27;20378;-82
2022/01/03 05:14:09;;;;;;;4.77;1.50;;;38.00;41.80;;;;;;5129454;27;20365;-82
2022/01/03 05:16:36;;;;;;;4.63;1.55;;;38.10;42.30;;;;;;5129369;27;20774;-86
2022/01/03 05:19:04;;;;;;;3.35;1.27;;;38.30;41.80;;;;;;5129537;27;20448;-78
2022/01/03 05:21:31;;;;;;;3.53;1.50;;;38.50;41.60;;;;;;5129537;27;20377;-83
2022/01/03 05:23:58;;;;;;;4.25;1.50;;;38.50;42.50;;;;;;5129418;27;20912;-80
2022/01/03 05:26:25;;;;;;;4.70;1.50;;;38.50;42.40;;;;;;5129334;27;20468;-78
2022/01/03 05:28:52;;;;;;;6.03;2.10;;;38.50;42.60;;;;;;5129449;27;20373;-82
2022/01/03 05:31:20;;;;;;;3.90;1.67;;;37.70;44.20;;;;;;5129200;27;20715;-81
2022/01/03 05:33:47;;;;;;;16.00;2.67;;;37.40;45.50;;;;;;5129216;27;20373;-84
2022/01/03 05:36:13;;;;;;;5.63;1.67;;;37.70;44.80;;;;;;5129407;27;20377;-78
2022/01/03 05:38:41;;;;;;;3.10;1.60;;;37.90;43.00;;;;;;5128869;27;20422;-79
2022/01/03 05:41:08;;;;;;;5.67;1.70;;;37.70;44.10;;;;;;5129012;27;20400;-84
2022/01/03 05:43:34;;;;;;;5.18;1.60;;;37.70;44.30;;;;;;5129318;27;20756;-82
2022/01/03 05:46:05;;;;;;;6.38;1.92;;;37.60;44.20;;;;;;5128259;28;20465;-81
2022/01/03 05:48:32;;;;;;;5.78;1.58;;;37.40;44.90;;;;;;5129341;28;20465;-76
2022/01/03 05:50:59;;;;;;;4.47;1.50;;;37.50;43.80;;;;;;5128844;28;20459;-82
2022/01/03 05:53:26;;;;;;;5.23;1.50;;;37.50;45.30;;;;;;5128802;28;20399;-77
2022/01/03 05:55:53;;;;;;;3.63;1.30;;;37.30;44.20;;;;;;5129185;28;20834;-78
2022/01/03 05:58:20;;;;;;;4.32;1.40;;;37.30;44.30;;;;;;5128733;28;20377;-79
2022/01/03 06:00:47;;;;;;;4.07;1.60;;;37.30;44.30;;;;;;5128947;28;20886;-85
2022/01/03 06:03:19;;;;;;;4.00;1.40;;;37.30;44.00;;;;;;5128719;28;20405;-84
2022/01/03 06:08:32;;;;;;;3.25;1.40;;;37.40;43.80;;;;;;5129509;28;20420;-85
2022/01/03 06:10:59;;;;;;;4.75;1.60;;;37.20;45.20;;;;;;5128705;28;20468;-83
2022/01/03 06:13:26;;;;;;;4.35;1.65;;;36.90;45.30;;;;;;5128862;28;20452;-77
2022/01/03 06:15:54;;;;;;;3.67;1.40;;;36.70;45.70;;;;;;5128722;28;20381;-79
2022/01/03 06:18:22;;;;;;;3.33;1.40;;;36.40;46.50;;;;;;5129476;27;20685;-87
2022/01/03 06:20:50;;;;;;;3.22;1.50;;;36.20;46.60;;;;;;5132606;27;20435;-77
2022/01/03 06:23:19;;;;;;;4.05;1.45;;;35.90;46.90;;;;;;5132712;27;20440;-81
2022/01/03 06:25:47;;;;;;;3.78;1.40;;;35.90;46.90;;;;;;5114210;27;20401;-84
2022/01/03 06:28:14;;;;;;;4.97;1.55;;;36.00;46.70;;;;;;5133299;27;20740;-84
2022/01/03 06:30:43;;;;;;;5.32;1.52;;;36.30;46.70;;;;;;5113977;27;20770;-86
2022/01/03 06:33:11;;;;;;;3.63;1.40;;;36.50;46.00;;;;;;5132549;27;20384;-80
2022/01/03 06:35:38;;;;;;;5.90;1.70;;;36.40;45.90;;;;;;5132540;27;20365;-80
2022/01/03 06:38:06;;;;;;;3.15;1.30;;;36.50;46.60;;;;;;5134287;27;20377;-81
2022/01/03 06:40:33;;;;;;;4.78;1.50;;;36.60;45.90;;;;;;5132527;27;20392;-82
2022/01/03 06:43:01;;;;;;;5.07;1.60;;;36.50;46.90;;;;;;5132597;27;20498;-80
2022/01/03 06:45:28;;;;;;;3.88;1.50;;;36.30;46.90;;;;;;5133373;27;20364;-85
2022/01/03 06:47:56;;;;;;;4.88;1.60;;;36.40;47.40;;;;;;5133633;27;20422;-80
2022/01/03 06:50:23;;;;;;;5.80;1.65;;;36.10;48.60;;;;;;5133337;27;20369;-80
2022/01/03 06:52:50;;;;;;;7.57;1.77;;;35.60;49.30;;;;;;5132712;27;20374;-83
2022/01/03 06:55:17;;;;;;;4.00;1.70;;;34.70;50.70;;;;;;5133298;27;20365;-90
2022/01/03 06:57:44;;;;;;;6.00;1.85;;;34.10;51.80;;;;;;5133105;27;20924;-87
2022/01/03 07:00:12;;;;;;;4.88;1.60;;;33.50;52.30;;;;;;5132943;27;20464;-87
2022/01/03 07:02:42;;;;;;;6.33;1.60;;;32.70;52.30;;;;;;5132439;27;20377;-88
2022/01/03 07:05:13;;;;;;;5.93;1.77;;;32.40;53.90;;;;;;5133004;27;20860;-85
2022/01/03 07:07:40;;;;;;;3.53;1.30;;;32.00;52.90;;;;;;5133041;27;20385;-80
2022/01/03 07:10:11;;;;;;;4.82;1.50;;;31.60;52.70;;;;;;5132299;27;20369;-87
2022/01/03 07:12:39;;;;;;;5.72;1.80;;;31.30;54.20;;;;;;5132445;27;20366;-78
2022/01/03 07:20:39;;;;;;;6.57;1.80;;;33.70;51.20;;;;;;5133188;27;20364;-81
2022/01/03 07:23:06;;;;;;;3.77;1.70;;;34.40;50.40;;;;;;5133024;27;20376;-89
2022/01/03 07:25:33;;;;;;;3.90;1.65;;;34.40;50.30;;;;;;5132945;27;20472;-90
2022/01/03 07:28:00;;;;;;;4.85;1.77;;;34.10;50.10;;;;;;5139429;27;20393;-90
2022/01/03 07:30:27;;;;;;;5.50;1.52;;;34.10;50.00;;;;;;5132402;27;20362;-90
2022/01/03 07:32:54;;;;;;;4.10;1.58;;;33.70;50.40;;;;;;5132413;27;20361;-85
2022/01/03 07:35:21;;;;;;;5.90;2.80;;;33.40;50.70;;;;;;5131949;27;20424;-90
2022/01/03 07:37:48;;;;;;;6.68;5.97;;;33.30;49.50;;;;;;5131509;27;20369;-83
2022/01/03 07:40:15;;;;;;;3.95;2.22;;;33.30;50.50;;;;;;5135920;27;20410;-82
2022/01/03 07:42:43;;;;;;;9.57;6.23;;;33.30;50.60;;;;;;5131205;27;20373;-89
2022/01/03 07:45:11;;;;;;;8.13;2.27;;;33.50;50.80;;;;;;5113248;27;20373;-82
2022/01/03 07:47:38;;;;;;;4.40;1.50;;;33.50;50.40;;;;;;5131575;27;20913;-79
2022/01/03 07:50:07;;;;;;;5.18;1.50;;;33.20;50.10;;;;;;5131225;27;20426;-85
2022/01/03 07:52:34;;;;;;;5.07;1.63;;;32.80;51.30;;;;;;5131158;27;20369;-85
2022/01/03 07:55:01;;;;;;;4.63;1.50;;;32.50;51.80;;;;;;5135460;27;20414;-87
2022/01/03 07:57:28;;;;;;;3.92;1.48;;;32.30;52.00;;;;;;5131223;27;20385;-85
2022/01/03 07:59:55;;;;;;;5.75;1.52;;;32.30;51.80;;;;;;5130975;27;20361;-87
2022/01/03 08:02:23;;;;;;;4.22;1.42;;;32.10;52.80;;;;;;5131166;27;20395;-87
2022/01/03 08:04:50;;;;;;;3.83;1.48;;;31.90;53.00;;;;;;5130755;27;20366;-84
2022/01/03 08:07:17;;;;;;;3.15;1.30;;;31.70;52.00;;;;;;5130955;27;20458;-90
2022/01/03 08:09:44;;;;;;;6.20;1.63;;;31.50;52.80;;;;;;5130689;27;20959;-85
2022/01/03 08:12:11;;;;;;;4.90;1.50;;;31.50;53.00;;;;;;5130848;27;20380;-88
2022/01/03 08:14:38;;;;;;;4.50;1.27;;;31.40;52.90;;;;;;5131038;27;20377;-86
2022/01/03 08:17:05;;;;;;;4.80;1.33;;;31.40;53.40;;;;;;5131376;27;20377;-92
2022/01/03 08:19:33;;;;;;;5.47;1.60;;;31.40;53.40;;;;;;5131130;27;20372;-89
2022/01/03 08:22:00;;;;;;;4.68;1.42;;;31.00;54.10;;;;;;5130794;27;20369;-89
2022/01/03 08:27:49;;;;;;;4.90;1.50;;;30.40;55.50;;;;;;5130769;27;20400;-85
2022/01/03 08:30:16;;;;;;;6.50;1.60;;;30.20;56.40;;;;;;5131643;27;20436;-81
2022/01/03 08:32:43;;;;;;;5.47;1.88;;;30.00;57.10;;;;;;5137666;27;20388;-82
2022/01/03 08:35:11;;;;;;;4.93;1.52;;;29.80;57.70;;;;;;5130438;27;20469;-87
2022/01/03 08:37:38;;;;;;;5.13;1.60;;;29.60;58.10;;;;;;5130454;27;20377;-85
2022/01/03 08:40:06;;;;;;;3.92;1.40;;;29.30;58.50;;;;;;5130051;27;20737;-87
2022/01/03 08:42:34;;;;;;;6.18;1.42;;;29.00;59.40;;;;;;5129451;27;20449;-87
2022/01/03 08:45:05;;;;;;;4.93;1.50;;;28.70;60.00;;;;;;5130320;27;20373;-88
2022/01/03 08:47:32;;;;;;;6.97;1.95;;;28.40;61.50;;;;;;5130520;27;20515;-85
2022/01/03 08:49:59;;;;;;;5.20;1.60;;;28.10;62.10;;;;;;5130246;27;20759;-89
2022/01/03 08:52:26;;;;;;;5.10;1.63;;;27.70;63.10;;;;;;5129652;27;20380;-81
2022/01/03 08:54:53;;;;;;;8.35;1.85;;;27.30;64.30;;;;;;5129851;27;20913;-84
2022/01/03 08:57:21;;;;;;;10.85;1.98;;;27.10;65.20;;;;;;5129808;27;20382;-87
2022/01/03 08:59:49;;;;;;;5.90;1.60;;;26.80;66.50;;;;;;5130557;27;20444;-82
2022/01/03 09:02:16;;;;;;;5.33;1.70;;;26.50;68.20;;;;;;5133076;27;20376;-83
2022/01/03 09:04:44;;;;;;;6.85;1.60;;;26.20;69.20;;;;;;5129643;27;20356;-88
2022/01/03 09:07:11;;;;;;;6.18;1.70;;;26.10;69.40;;;;;;5129796;27;20412;-82
2022/01/03 09:09:38;;;;;;;6.97;1.77;;;25.90;70.30;;;;;;5129796;27;20373;-86
2022/01/03 09:12:07;;;;;;;5.90;1.80;;;25.80;71.40;;;;;;5129641;27;20380;-84
2022/01/03 09:14:35;;;;;;;5.43;1.70;;;25.70;72.50;;;;;;5129687;27;20400;-87
2022/01/03 09:17:03;;;;;;;6.75;1.90;;;25.60;74.20;;;;;;5129523;27;20373;-86
2022/01/03 09:19:31;;;;;;;8.70;1.80;;;25.50;75.60;;;;;;5129679;27;20369;-84
2022/01/03 09:22:36;;;;;;;5.13;1.60;;;25.30;76.60;;;;;;5130882;27;20381;-87
2022/01/03 09:28:48;;;;;;;6.03;1.88;;;25.10;78.10;;;;;;5126458;27;20373;-85
2022/01/03 09:30:26;;;;;;;7.18;1.90;;;24.90;83.00;;;;;;5129702;27;20357;-85
2022/01/03 09:32:53;;;;;;;6.60;1.90;;;24.80;86.10;;;;;;5129310;27;20851;-85
2022/01/03 09:35:21;;;;;;;7.45;1.92;;;24.70;88.10;;;;;;5129072;27;20434;-80
2022/01/03 09:37:49;;;;;;;6.40;2.00;;;24.60;90.10;;;;;;5129231;27;20406;-82
2022/01/03 09:40:17;;;;;;;8.95;2.03;;;24.60;91.10;;;;;;5129020;27;20377;-84
2022/01/03 09:42:50;;;;;;;9.23;2.08;;;24.50;92.20;;;;;;5129000;27;20774;-85
2022/01/03 09:45:17;;;;;;;6.32;1.92;;;24.40;93.40;;;;;;5128899;27;20365;-81
2022/01/03 09:47:46;;;;;;;8.98;2.20;;;24.40;94.50;;;;;;5129032;28;20388;-84
2022/01/03 09:50:21;;;;;;;8.45;2.20;;;24.40;95.20;;;;;;5128994;28;20850;-84
2022/01/03 09:52:50;;;;;;;9.45;2.22;;;24.40;96.00;;;;;;5129004;27;20388;-90
2022/01/03 09:55:20;;;;;;;8.68;2.40;;;24.30;96.60;;;;;;5133371;27;20398;-82
2022/01/03 09:57:48;;;;;;;8.63;2.37;;;24.20;97.50;;;;;;5133717;27;20391;-84
2022/01/03 10:00:22;;;;;;;10.80;2.47;;;24.20;98.30;;;;;;5115482;27;20368;-86
2022/01/03 10:02:53;;;;;;;11.73;2.58;;;24.10;98.80;;;;;;5133629;27;20364;-80
2022/01/03 10:05:21;;;;;;;12.10;2.53;;;24.00;99.40;;;;;;5133494;27;20404;-84
2022/01/03 10:07:50;;;;;;;9.68;2.40;;;24.00;99.70;;;;;;5133330;27;20476;-83
2022/01/03 10:10:17;;;;;;;10.75;2.83;;;23.90;99.90;;;;;;5133040;27;20361;-85
2022/01/03 10:12:44;;;;;;;11.52;2.58;;;23.90;99.90;;;;;;5114905;27;20380;-84
2022/01/03 10:15:11;;;;;;;12.38;2.95;;;23.90;99.90;;;;;;5133475;27;20894;-83
2022/01/03 10:17:41;;;;;;;13.95;2.80;;;23.80;99.90;;;;;;5133234;27;20456;-84
2022/01/03 10:20:12;;;;;;;11.40;2.70;;;23.80;99.90;;;;;;5133250;27;20365;-86
2022/01/03 10:22:42;;;;;;;14.23;2.83;;;23.80;99.90;;;;;;5133511;27;20871;-81
2022/01/03 10:25:15;;;;;;;12.32;2.65;;;23.80;99.90;;;;;;5133145;27;20405;-84
2022/01/03 10:27:47;;;;;;;12.18;2.80;;;23.80;99.90;;;;;;5133629;27;20476;-87
2022/01/03 10:30:28;;;;;;;16.45;3.08;;;23.70;99.90;;;;;;5133377;27;20510;-85
2022/01/03 10:32:55;;;;;;;12.48;2.88;;;23.70;99.90;;;;;;5133530;27;20447;-85
2022/01/03 10:35:22;;;;;;;11.20;2.90;;;23.70;99.90;;;;;;5133369;27;20362;-86
2022/01/03 10:37:50;;;;;;;15.20;3.00;;;23.60;99.90;;;;;;5114721;27;20385;-86
2022/01/03 10:40:28;;;;;;;11.90;2.90;;;23.60;99.90;;;;;;5133069;27;20385;-86
2022/01/03 10:43:12;;;;;;;15.50;3.03;;;23.60;99.90;;;;;;5132703;27;20389;-85
2022/01/03 10:45:39;;;;;;;17.65;3.13;;;23.60;99.90;;;;;;5134159;27;20365;-86
2022/01/03 10:48:37;;;;;;;10.90;2.83;;;23.60;99.90;;;;;;5133085;27;20899;-84
2022/01/03 10:51:04;;;;;;;13.10;2.97;;;23.60;99.90;;;;;;5133950;27;20436;-84
2022/01/03 10:53:39;;;;;;;11.73;2.72;;;23.60;99.90;;;;;;5132570;27;20717;-83
2022/01/03 10:56:25;;;;;;;12.40;3.05;;;23.50;99.90;;;;;;5132362;27;20363;-83
2022/01/03 10:58:53;;;;;;;11.90;3.05;;;23.40;99.90;;;;;;5132657;27;20369;-83
2022/01/03 11:01:25;;;;;;;13.40;3.00;;;23.40;99.90;;;;;;5132423;27;20364;-84
2022/01/03 11:03:53;;;;;;;13.25;3.03;;;23.30;99.90;;;;;;5132423;27;20390;-85
2022/01/03 11:11:44;;;;;;;9.98;2.92;;;23.40;99.90;;;;;;5132985;27;20434;-84
2022/01/03 11:14:30;;;;;;;13.07;2.95;;;23.50;99.90;;;;;;5132154;27;20384;-83
2022/01/03 11:16:57;;;;;;;13.87;3.00;;;23.50;99.90;;;;;;5132393;27;20734;-84
2022/01/03 11:19:43;;;;;;;15.50;3.10;;;23.50;99.90;;;;;;5132133;27;20362;-84
2022/01/03 11:22:30;;;;;;;13.10;3.00;;;23.60;99.90;;;;;;5131992;27;20543;-84
2022/01/03 11:24:57;;;;;;;17.98;3.35;;;23.60;99.90;;;;;;5113399;27;20365;-85
2022/01/03 11:27:24;;;;;;;16.92;3.47;;;23.50;99.90;;;;;;5131936;27;20717;-85
2022/01/03 11:29:52;;;;;;;16.50;3.30;;;23.50;99.90;;;;;;5131710;27;20396;-85
2022/01/03 11:32:19;;;;;;;17.13;3.30;;;23.40;99.90;;;;;;5131726;27;20369;-84
2022/01/03 11:34:47;;;;;;;12.43;3.08;;;23.40;99.90;;;;;;5131665;27;20365;-84
2022/01/03 11:37:15;;;;;;;12.82;3.22;;;23.30;99.90;;;;;;5131559;27;20361;-81
2022/01/03 11:39:42;;;;;;;19.42;3.40;;;23.30;99.90;;;;;;5131336;27;20428;-82
2022/01/03 11:42:11;;;;;;;15.70;3.15;;;23.10;99.90;;;;;;5131315;27;20899;-85
2022/01/03 11:44:40;;;;;;;14.13;3.20;;;23.30;99.90;;;;;;5131820;27;20428;-86
2022/01/03 11:47:11;;;;;;;17.05;3.67;;;23.30;99.90;;;;;;5131576;27;20381;-85
2022/01/03 11:49:38;;;;;;;16.27;3.50;;;23.40;99.90;;;;;;5131300;27;20876;-85
2022/01/03 11:52:12;;;;;;;14.75;3.10;;;23.40;99.90;;;;;;5113200;27;20854;-85
2022/01/03 11:54:40;;;;;;;15.40;3.20;;;23.40;99.90;;;;;;5131248;27;20899;-84
2022/01/03 11:57:19;;;;;;;13.93;3.22;;;23.50;99.90;;;;;;5131091;27;20369;-83
2022/01/03 12:03:51;;;;;;;14.33;3.23;;;23.50;99.90;;;;;;5131395;27;20352;-83
2022/01/03 12:05:55;;;;;;;19.25;3.30;;;23.60;99.90;;;;;;5120166;27;20452;-85
2022/01/03 12:08:33;;;;;;;15.88;3.13;;;23.70;99.90;;;;;;5130891;27;20397;-83
2022/01/03 12:11:01;;;;;;;16.65;3.20;;;23.70;99.90;;;;;;5130807;27;20353;-85
2022/01/03 12:13:56;;;;;;;12.02;2.80;;;23.70;99.90;;;;;;5130870;27;20373;-84
2022/01/03 12:16:41;;;;;;;15.60;3.38;;;23.50;99.90;;;;;;5124745;27;20383;-84
2022/01/03 12:19:12;;;;;;;10.95;2.60;;;23.20;99.90;;;;;;5130763;27;20863;-82
2022/01/03 12:21:52;;;;;;;14.35;3.25;;;22.90;99.90;;;;;;5130930;27;20774;-83
2022/01/03 12:24:28;;;;;;;13.55;3.17;;;22.80;99.90;;;;;;5130657;27;20366;-84
2022/01/03 12:27:13;;;;;;;11.43;2.85;;;22.70;99.90;;;;;;5112130;27;20377;-84
2022/01/03 12:30:03;;;;;;;12.55;2.90;;;22.60;99.90;;;;;;5130596;27;20795;-83
2022/01/03 12:32:31;;;;;;;15.15;2.90;;;22.50;99.90;;;;;;5130910;27;20841;-84
2022/01/03 12:35:16;;;;;;;15.77;3.20;;;22.40;99.90;;;;;;5130507;27;20362;-79
2022/01/03 12:37:47;;;;;;;11.15;2.83;;;22.30;99.90;;;;;;5130915;27;20694;-81
2022/01/03 12:40:45;;;;;;;15.48;3.00;;;22.20;99.90;;;;;;5111408;27;20388;-83
2022/01/03 12:43:14;;;;;;;16.27;3.28;;;22.30;99.90;;;;;;5125953;27;20365;-84
2022/01/03 12:45:45;;;;;;;14.88;3.00;;;22.30;99.90;;;;;;5130553;27;20368;-84
2022/01/03 12:48:12;;;;;;;13.63;3.15;;;22.20;99.90;;;;;;5130764;27;20488;-84
2022/01/03 12:50:44;;;;;;;15.80;3.08;;;22.20;99.90;;;;;;5130890;27;20379;-81
2022/01/03 12:53:13;;;;;;;15.27;2.97;;;22.20;99.90;;;;;;5130931;27;20852;-82
2022/01/03 12:55:41;;;;;;;15.82;3.15;;;22.10;99.90;;;;;;5130049;27;20377;-84
2022/01/03 12:58:20;;;;;;;16.13;3.03;;;22.00;99.90;;;;;;5129986;27;20716;-83
2022/01/03 13:00:51;;;;;;;13.30;3.10;;;22.00;99.90;;;;;;5130503;27;20373;-85
2022/01/03 13:03:28;;;;;;;12.02;2.97;;;21.90;99.90;;;;;;5130538;27;20446;-84
2022/01/03 13:06:16;;;;;;;15.45;3.08;;;21.80;99.90;;;;;;5129698;27;20378;-85
2022/01/03 13:08:55;;;;;;;12.88;2.80;;;21.80;99.90;;;;;;5129945;27;20369;-85
2022/01/03 13:11:23;;;;;;;12.68;3.00;;;21.70;99.90;;;;;;5111452;27;20861;-84
2022/01/03 13:13:52;;;;;;;11.07;2.63;;;21.70;99.90;;;;;;5130144;27;20373;-81
2022/01/03 13:16:35;;;;;;;13.68;2.90;;;21.60;99.90;;;;;;5129563;27;20374;-83
2022/01/03 13:19:27;;;;;;;12.32;2.88;;;21.60;99.90;;;;;;5129569;27;20883;-85
2022/01/03 13:22:02;;;;;;;14.05;2.95;;;21.70;99.90;;;;;;5119211;27;20509;-83
2022/01/03 13:24:30;;;;;;;12.07;2.95;;;21.70;99.90;;;;;;5129646;27;20718;-85
2022/01/03 13:27:04;;;;;;;13.60;2.83;;;21.70;99.90;;;;;;5129479;27;20405;-84